WAP weather

Alto Palena Airport
Alto Palena, Los Lagos Region, Chile

Public forecast

Using degrees Celsius for public forecast. Weather courtesy of forecast.io.

METAR (pilot weather report)

Retrieved 2019/04/25 13:00 UTC (21 minutes ago):

SCAP 251300Z VRB01KT 9999 FEW001 00/M01 Q1026

TAF (pilot weather forecast)

Forecast is more than 12 hours old.

Closest forecast is Brigadier Antonio Parodi Airport, 51.3 nm (95.1 km) NE. Retrieved 2019/04/15 06:04 UTC (10 days ago):

TAF SAVE 150500Z 1506/1606 27010KT 9999 SCT030 TX12/1518Z TNM01/1510Z BECMG 1518/1520 29010KT